sensor_id;sensor_type;location;lat;lon;timestamp;temperature;humidity
26262;DHT22;13988;52.446;13.280;2023-05-10T00:02:24;12.00;99.90
26262;DHT22;13988;52.446;13.280;2023-05-10T00:04:50;12.00;99.90
26262;DHT22;13988;52.446;13.280;2023-05-10T00:07:15;11.90;99.90
26262;DHT22;13988;52.446;13.280;2023-05-10T00:09:43;12.00;99.90
26262;DHT22;13988;52.446;13.280;2023-05-10T00:12:09;11.80;99.90
26262;DHT22;13988;52.446;13.280;2023-05-10T00:14:34;11.80;99.90
26262;DHT22;13988;52.446;13.280;2023-05-10T00:17:00;11.70;99.90
26262;DHT22;13988;52.446;13.280;2023-05-10T00:19:26;11.70;99.90
26262;DHT22;13988;52.446;13.280;2023-05-10T00:21:52;11.80;99.90
26262;DHT22;13988;52.446;13.280;2023-05-10T00:24:17;11.80;99.90
26262;DHT22;13988;52.446;13.280;2023-05-10T00:26:43;11.80;99.90
26262;DHT22;13988;52.446;13.280;2023-05-10T00:29:09;11.80;99.90
26262;DHT22;13988;52.446;13.280;2023-05-10T00:31:34;11.80;99.90
26262;DHT22;13988;52.446;13.280;2023-05-10T00:34:00;11.80;99.90
26262;DHT22;13988;52.446;13.280;2023-05-10T00:36:25;11.80;99.90
26262;DHT22;13988;52.446;13.280;2023-05-10T00:38:51;11.70;99.90
26262;DHT22;13988;52.446;13.280;2023-05-10T00:41:17;11.60;99.90
26262;DHT22;13988;52.446;13.280;2023-05-10T00:43:42;11.70;99.90
26262;DHT22;13988;52.446;13.280;2023-05-10T00:46:08;11.70;99.90
26262;DHT22;13988;52.446;13.280;2023-05-10T00:48:34;11.60;99.90
26262;DHT22;13988;52.446;13.280;2023-05-10T00:51:01;11.60;99.90
26262;DHT22;13988;52.446;13.280;2023-05-10T00:53:27;11.60;99.90
26262;DHT22;13988;52.446;13.280;2023-05-10T00:55:53;11.60;99.90
26262;DHT22;13988;52.446;13.280;2023-05-10T00:58:18;11.60;99.90
26262;DHT22;13988;52.446;13.280;2023-05-10T01:00:46;11.60;99.90
26262;DHT22;13988;52.446;13.280;2023-05-10T01:03:12;11.60;99.90
26262;DHT22;13988;52.446;13.280;2023-05-10T01:05:38;11.50;99.90
26262;DHT22;13988;52.446;13.280;2023-05-10T01:08:04;11.50;99.90
26262;DHT22;13988;52.446;13.280;2023-05-10T01:10:30;11.50;99.90
26262;DHT22;13988;52.446;13.280;2023-05-10T01:12:57;11.50;99.90
26262;DHT22;13988;52.446;13.280;2023-05-10T01:15:24;11.50;99.90
26262;DHT22;13988;52.446;13.280;2023-05-10T01:17:51;11.50;99.90
26262;DHT22;13988;52.446;13.280;2023-05-10T01:20:17;11.50;99.90
26262;DHT22;13988;52.446;13.280;2023-05-10T01:31:23;11.40;99.90
26262;DHT22;13988;52.446;13.280;2023-05-10T01:34:09;11.30;99.90
26262;DHT22;13988;52.446;13.280;2023-05-10T01:36:51;11.40;99.90
26262;DHT22;13988;52.446;13.280;2023-05-10T01:44:39;11.20;99.90
26262;DHT22;13988;52.446;13.280;2023-05-10T01:47:22;11.30;99.90
26262;DHT22;13988;52.446;13.280;2023-05-10T01:49:52;11.30;99.90
26262;DHT22;13988;52.446;13.280;2023-05-10T01:52:24;11.20;99.90
26262;DHT22;13988;52.446;13.280;2023-05-10T01:54:57;11.20;99.90
26262;DHT22;13988;52.446;13.280;2023-05-10T01:57:28;11.10;99.90
26262;DHT22;13988;52.446;13.280;2023-05-10T01:59:57;11.10;99.90
26262;DHT22;13988;52.446;13.280;2023-05-10T02:02:24;11.10;99.90
26262;DHT22;13988;52.446;13.280;2023-05-10T02:04:51;11.00;99.90
26262;DHT22;13988;52.446;13.280;2023-05-10T02:07:19;11.00;99.90
26262;DHT22;13988;52.446;13.280;2023-05-10T02:09:46;11.00;99.90
26262;DHT22;13988;52.446;13.280;2023-05-10T02:12:15;10.90;99.90
26262;DHT22;13988;52.446;13.280;2023-05-10T02:14:42;10.90;99.90
26262;DHT22;13988;52.446;13.280;2023-05-10T02:17:09;10.90;99.90
26262;DHT22;13988;52.446;13.280;2023-05-10T02:19:39;10.90;99.90
26262;DHT22;13988;52.446;13.280;2023-05-10T02:22:06;10.90;99.90
26262;DHT22;13988;52.446;13.280;2023-05-10T02:24:34;10.90;99.90
26262;DHT22;13988;52.446;13.280;2023-05-10T02:27:02;10.80;99.90
26262;DHT22;13988;52.446;13.280;2023-05-10T02:29:30;10.70;99.90
26262;DHT22;13988;52.446;13.280;2023-05-10T02:31:57;10.70;99.90
26262;DHT22;13988;52.446;13.280;2023-05-10T02:34:25;10.70;99.90
26262;DHT22;13988;52.446;13.280;2023-05-10T02:36:52;10.70;99.90
26262;DHT22;13988;52.446;13.280;2023-05-10T02:39:19;10.70;99.90
26262;DHT22;13988;52.446;13.280;2023-05-10T02:41:46;10.60;99.90
26262;DHT22;13988;52.446;13.280;2023-05-10T02:44:15;10.60;99.90
26262;DHT22;13988;52.446;13.280;2023-05-10T02:46:43;10.60;99.90
26262;DHT22;13988;52.446;13.280;2023-05-10T02:49:09;10.50;99.90
26262;DHT22;13988;52.446;13.280;2023-05-10T02:51:37;10.60;99.90
26262;DHT22;13988;52.446;13.280;2023-05-10T02:54:14;10.50;99.90
26262;DHT22;13988;52.446;13.280;2023-05-10T02:56:45;10.40;99.90
26262;DHT22;13988;52.446;13.280;2023-05-10T02:59:12;10.40;99.90
26262;DHT22;13988;52.446;13.280;2023-05-10T03:01:38;10.40;99.90
26262;DHT22;13988;52.446;13.280;2023-05-10T03:04:04;10.50;99.90
26262;DHT22;13988;52.446;13.280;2023-05-10T03:06:29;10.40;99.90
26262;DHT22;13988;52.446;13.280;2023-05-10T03:08:55;10.40;99.90
26262;DHT22;13988;52.446;13.280;2023-05-10T03:17:06;10.40;99.90
26262;DHT22;13988;52.446;13.280;2023-05-10T03:19:47;10.20;99.90
26262;DHT22;13988;52.446;13.280;2023-05-10T03:22:29;10.20;99.90
26262;DHT22;13988;52.446;13.280;2023-05-10T03:24:56;10.20;99.90
26262;DHT22;13988;52.446;13.280;2023-05-10T03:27:25;10.10;99.90
26262;DHT22;13988;52.446;13.280;2023-05-10T03:29:53;10.10;99.90
26262;DHT22;13988;52.446;13.280;2023-05-10T03:32:20;10.20;99.90
26262;DHT22;13988;52.446;13.280;2023-05-10T03:34:45;10.20;99.90
26262;DHT22;13988;52.446;13.280;2023-05-10T03:37:11;10.10;99.90
26262;DHT22;13988;52.446;13.280;2023-05-10T03:39:36;10.10;99.90
26262;DHT22;13988;52.446;13.280;2023-05-10T03:42:02;10.10;99.90
26262;DHT22;13988;52.446;13.280;2023-05-10T03:44:28;10.10;99.90
26262;DHT22;13988;52.446;13.280;2023-05-10T03:46:53;10.10;99.90
26262;DHT22;13988;52.446;13.280;2023-05-10T03:49:19;10.10;99.90
26262;DHT22;13988;52.446;13.280;2023-05-10T03:51:45;10.10;99.90
26262;DHT22;13988;52.446;13.280;2023-05-10T03:54:10;10.10;99.90
26262;DHT22;13988;52.446;13.280;2023-05-10T03:56:36;10.10;99.90
26262;DHT22;13988;52.446;13.280;2023-05-10T03:59:02;10.10;99.90
26262;DHT22;13988;52.446;13.280;2023-05-10T04:01:33;10.10;99.90
26262;DHT22;13988;52.446;13.280;2023-05-10T04:03:58;10.10;99.90
26262;DHT22;13988;52.446;13.280;2023-05-10T04:06:24;10.10;99.90
26262;DHT22;13988;52.446;13.280;2023-05-10T04:08:50;10.10;99.90
26262;DHT22;13988;52.446;13.280;2023-05-10T04:11:16;10.10;99.90
26262;DHT22;13988;52.446;13.280;2023-05-10T04:13:41;10.20;99.90
26262;DHT22;13988;52.446;13.280;2023-05-10T04:16:08;10.20;99.90
26262;DHT22;13988;52.446;13.280;2023-05-10T04:18:34;10.20;99.90
26262;DHT22;13988;52.446;13.280;2023-05-10T04:21:00;10.30;99.90
26262;DHT22;13988;52.446;13.280;2023-05-10T04:23:26;10.30;99.90
26262;DHT22;13988;52.446;13.280;2023-05-10T04:25:52;10.30;99.90
26262;DHT22;13988;52.446;13.280;2023-05-10T04:28:18;10.30;99.90
26262;DHT22;13988;52.446;13.280;2023-05-10T04:30:44;10.30;99.90
26262;DHT22;13988;52.446;13.280;2023-05-10T04:33:09;10.30;99.90
26262;DHT22;13988;52.446;13.280;2023-05-10T04:35:35;10.30;99.90
26262;DHT22;13988;52.446;13.280;2023-05-10T04:38:01;10.30;99.90
26262;DHT22;13988;52.446;13.280;2023-05-10T04:40:26;10.40;99.90
26262;DHT22;13988;52.446;13.280;2023-05-10T04:42:52;10.40;99.90
26262;DHT22;13988;52.446;13.280;2023-05-10T04:45:18;10.40;99.90
26262;DHT22;13988;52.446;13.280;2023-05-10T04:47:43;10.40;99.90
26262;DHT22;13988;52.446;13.280;2023-05-10T04:50:09;10.50;99.90
26262;DHT22;13988;52.446;13.280;2023-05-10T04:52:35;10.50;99.90
26262;DHT22;13988;52.446;13.280;2023-05-10T04:55:01;10.50;99.90
26262;DHT22;13988;52.446;13.280;2023-05-10T04:57:27;10.60;99.90
26262;DHT22;13988;52.446;13.280;2023-05-10T04:59:52;10.60;99.90
26262;DHT22;13988;52.446;13.280;2023-05-10T05:02:18;10.60;99.90
26262;DHT22;13988;52.446;13.280;2023-05-10T05:04:44;10.60;99.90
26262;DHT22;13988;52.446;13.280;2023-05-10T05:07:09;10.70;99.90
26262;DHT22;13988;52.446;13.280;2023-05-10T05:09:35;10.80;99.90
26262;DHT22;13988;52.446;13.280;2023-05-10T05:12:01;10.80;99.90
26262;DHT22;13988;52.446;13.280;2023-05-10T05:14:27;10.90;99.90
26262;DHT22;13988;52.446;13.280;2023-05-10T05:16:52;10.90;99.90
26262;DHT22;13988;52.446;13.280;2023-05-10T05:19:18;11.00;99.90
26262;DHT22;13988;52.446;13.280;2023-05-10T05:21:44;11.10;99.90
26262;DHT22;13988;52.446;13.280;2023-05-10T05:24:09;11.10;99.90
26262;DHT22;13988;52.446;13.280;2023-05-10T05:26:36;11.30;99.90
26262;DHT22;13988;52.446;13.280;2023-05-10T05:29:02;11.30;99.90
26262;DHT22;13988;52.446;13.280;2023-05-10T05:31:28;11.40;99.90
26262;DHT22;13988;52.446;13.280;2023-05-10T05:33:54;11.40;99.90
26262;DHT22;13988;52.446;13.280;2023-05-10T05:36:19;11.60;99.90
26262;DHT22;13988;52.446;13.280;2023-05-10T05:38:45;11.60;99.90
26262;DHT22;13988;52.446;13.280;2023-05-10T05:41:11;11.70;99.90
26262;DHT22;13988;52.446;13.280;2023-05-10T05:43:36;11.70;99.90
26262;DHT22;13988;52.446;13.280;2023-05-10T05:46:02;11.80;99.90
26262;DHT22;13988;52.446;13.280;2023-05-10T05:48:29;11.90;99.90
26262;DHT22;13988;52.446;13.280;2023-05-10T05:50:55;12.10;99.90
26262;DHT22;13988;52.446;13.280;2023-05-10T05:53:24;12.20;99.90
26262;DHT22;13988;52.446;13.280;2023-05-10T05:55:54;12.20;99.90
26262;DHT22;13988;52.446;13.280;2023-05-10T05:58:24;12.40;99.90
26262;DHT22;13988;52.446;13.280;2023-05-10T06:00:50;12.60;99.90
26262;DHT22;13988;52.446;13.280;2023-05-10T06:03:17;13.10;99.90
26262;DHT22;13988;52.446;13.280;2023-05-10T06:05:43;13.80;99.90
26262;DHT22;13988;52.446;13.280;2023-05-10T06:08:09;15.10;99.90
26262;DHT22;13988;52.446;13.280;2023-05-10T06:10:35;16.10;99.90
26262;DHT22;13988;52.446;13.280;2023-05-10T06:13:00;16.80;99.90
26262;DHT22;13988;52.446;13.280;2023-05-10T06:15:27;17.60;99.90
26262;DHT22;13988;52.446;13.280;2023-05-10T06:17:52;18.40;99.50
26262;DHT22;13988;52.446;13.280;2023-05-10T06:20:18;18.50;98.30
26262;DHT22;13988;52.446;13.280;2023-05-10T06:22:44;18.70;95.80
26262;DHT22;13988;52.446;13.280;2023-05-10T06:25:10;18.80;95.20
26262;DHT22;13988;52.446;13.280;2023-05-10T06:27:35;18.50;94.00
26262;DHT22;13988;52.446;13.280;2023-05-10T06:30:01;18.50;93.20
26262;DHT22;13988;52.446;13.280;2023-05-10T06:32:28;18.80;92.80
26262;DHT22;13988;52.446;13.280;2023-05-10T06:34:53;19.50;91.00
26262;DHT22;13988;52.446;13.280;2023-05-10T06:37:19;19.30;90.30
26262;DHT22;13988;52.446;13.280;2023-05-10T06:39:44;19.80;88.60
26262;DHT22;13988;52.446;13.280;2023-05-10T06:42:10;19.40;89.00
26262;DHT22;13988;52.446;13.280;2023-05-10T06:44:36;19.90;87.00
26262;DHT22;13988;52.446;13.280;2023-05-10T06:47:01;20.30;85.50
26262;DHT22;13988;52.446;13.280;2023-05-10T06:49:27;20.60;84.80
26262;DHT22;13988;52.446;13.280;2023-05-10T06:51:53;20.90;82.90
26262;DHT22;13988;52.446;13.280;2023-05-10T06:54:18;21.70;80.90
26262;DHT22;13988;52.446;13.280;2023-05-10T06:56:44;20.50;78.40
26262;DHT22;13988;52.446;13.280;2023-05-10T06:59:10;20.70;81.30
26262;DHT22;13988;52.446;13.280;2023-05-10T07:01:35;21.40;81.80
26262;DHT22;13988;52.446;13.280;2023-05-10T07:04:01;21.80;78.80
26262;DHT22;13988;52.446;13.280;2023-05-10T07:06:26;22.20;74.80
26262;DHT22;13988;52.446;13.280;2023-05-10T07:08:52;21.60;74.60
26262;DHT22;13988;52.446;13.280;2023-05-10T07:11:18;20.80;73.90
26262;DHT22;13988;52.446;13.280;2023-05-10T07:13:44;20.60;77.60
26262;DHT22;13988;52.446;13.280;2023-05-10T07:16:11;21.50;78.00
26262;DHT22;13988;52.446;13.280;2023-05-10T07:18:37;21.60;76.10
26262;DHT22;13988;52.446;13.280;2023-05-10T07:21:03;22.10;75.30
26262;DHT22;13988;52.446;13.280;2023-05-10T07:23:29;22.50;73.90
26262;DHT22;13988;52.446;13.280;2023-05-10T07:25:55;22.20;70.90
26262;DHT22;13988;52.446;13.280;2023-05-10T07:28:22;22.20;72.40
26262;DHT22;13988;52.446;13.280;2023-05-10T07:30:49;22.20;70.30
26262;DHT22;13988;52.446;13.280;2023-05-10T07:33:15;23.20;71.40
26262;DHT22;13988;52.446;13.280;2023-05-10T07:35:41;22.20;71.80
26262;DHT22;13988;52.446;13.280;2023-05-10T07:38:07;22.20;69.50
26262;DHT22;13988;52.446;13.280;2023-05-10T07:40:32;22.40;70.40
26262;DHT22;13988;52.446;13.280;2023-05-10T07:42:58;22.20;69.20
26262;DHT22;13988;52.446;13.280;2023-05-10T07:45:25;22.30;69.20
26262;DHT22;13988;52.446;13.280;2023-05-10T07:47:50;22.10;71.30
26262;DHT22;13988;52.446;13.280;2023-05-10T07:50:16;23.00;70.30
26262;DHT22;13988;52.446;13.280;2023-05-10T07:52:42;22.40;69.70
26262;DHT22;13988;52.446;13.280;2023-05-10T07:55:08;22.20;70.30
26262;DHT22;13988;52.446;13.280;2023-05-10T07:57:34;21.80;70.90
26262;DHT22;13988;52.446;13.280;2023-05-10T08:00:00;21.00;72.20
26262;DHT22;13988;52.446;13.280;2023-05-10T08:02:26;20.80;72.90
26262;DHT22;13988;52.446;13.280;2023-05-10T08:04:51;20.50;75.50
26262;DHT22;13988;52.446;13.280;2023-05-10T08:07:17;19.90;75.20
26262;DHT22;13988;52.446;13.280;2023-05-10T08:09:43;19.60;78.90
26262;DHT22;13988;52.446;13.280;2023-05-10T08:12:08;19.20;79.20
26262;DHT22;13988;52.446;13.280;2023-05-10T08:14:34;19.10;81.50
26262;DHT22;13988;52.446;13.280;2023-05-10T08:17:02;19.20;82.30
26262;DHT22;13988;52.446;13.280;2023-05-10T08:19:28;19.00;81.90
26262;DHT22;13988;52.446;13.280;2023-05-10T08:21:54;19.10;82.10
26262;DHT22;13988;52.446;13.280;2023-05-10T08:24:21;19.10;83.70
26262;DHT22;13988;52.446;13.280;2023-05-10T08:26:47;19.00;82.70
26262;DHT22;13988;52.446;13.280;2023-05-10T08:29:13;18.90;85.90
26262;DHT22;13988;52.446;13.280;2023-05-10T08:31:39;19.10;86.20
26262;DHT22;13988;52.446;13.280;2023-05-10T08:34:05;19.00;82.90
26262;DHT22;13988;52.446;13.280;2023-05-10T08:36:30;19.00;85.00
26262;DHT22;13988;52.446;13.280;2023-05-10T08:38:58;19.10;83.20
26262;DHT22;13988;52.446;13.280;2023-05-10T08:41:24;19.10;86.00
26262;DHT22;13988;52.446;13.280;2023-05-10T08:43:51;19.10;87.70
26262;DHT22;13988;52.446;13.280;2023-05-10T08:46:19;19.40;86.00
26262;DHT22;13988;52.446;13.280;2023-05-10T08:48:46;19.30;87.50
26262;DHT22;13988;52.446;13.280;2023-05-10T08:51:18;19.50;85.60
26262;DHT22;13988;52.446;13.280;2023-05-10T08:53:45;19.40;85.00
26262;DHT22;13988;52.446;13.280;2023-05-10T08:56:11;19.30;85.60
26262;DHT22;13988;52.446;13.280;2023-05-10T08:58:38;19.30;86.90
26262;DHT22;13988;52.446;13.280;2023-05-10T09:01:05;19.30;85.30
26262;DHT22;13988;52.446;13.280;2023-05-10T09:03:31;19.20;85.30
26262;DHT22;13988;52.446;13.280;2023-05-10T09:05:57;19.30;87.60
26262;DHT22;13988;52.446;13.280;2023-05-10T09:08:24;19.30;86.50
26262;DHT22;13988;52.446;13.280;2023-05-10T09:10:53;19.40;87.90
26262;DHT22;13988;52.446;13.280;2023-05-10T09:13:20;19.20;87.40
26262;DHT22;13988;52.446;13.280;2023-05-10T09:15:47;19.30;86.90
26262;DHT22;13988;52.446;13.280;2023-05-10T09:18:13;19.50;87.40
26262;DHT22;13988;52.446;13.280;2023-05-10T09:20:39;19.40;84.40
26262;DHT22;13988;52.446;13.280;2023-05-10T09:23:04;19.60;85.50
26262;DHT22;13988;52.446;13.280;2023-05-10T09:25:31;19.50;87.00
26262;DHT22;13988;52.446;13.280;2023-05-10T09:27:58;19.40;85.00
26262;DHT22;13988;52.446;13.280;2023-05-10T09:30:30;19.60;86.90
26262;DHT22;13988;52.446;13.280;2023-05-10T09:32:57;19.70;85.70
26262;DHT22;13988;52.446;13.280;2023-05-10T09:35:25;19.70;84.90
26262;DHT22;13988;52.446;13.280;2023-05-10T09:37:53;19.70;87.20
26262;DHT22;13988;52.446;13.280;2023-05-10T09:40:24;19.70;87.70
26262;DHT22;13988;52.446;13.280;2023-05-10T09:43:03;20.10;85.00
26262;DHT22;13988;52.446;13.280;2023-05-10T09:45:30;20.00;86.30
26262;DHT22;13988;52.446;13.280;2023-05-10T09:47:57;19.80;85.40
26262;DHT22;13988;52.446;13.280;2023-05-10T09:50:23;19.80;88.00
26262;DHT22;13988;52.446;13.280;2023-05-10T09:52:52;19.80;85.40
26262;DHT22;13988;52.446;13.280;2023-05-10T09:55:22;20.00;86.00
26262;DHT22;13988;52.446;13.280;2023-05-10T09:57:48;20.10;86.20
26262;DHT22;13988;52.446;13.280;2023-05-10T10:00:18;20.00;84.10
26262;DHT22;13988;52.446;13.280;2023-05-10T10:02:53;19.90;85.80
26262;DHT22;13988;52.446;13.280;2023-05-10T10:05:19;20.00;85.30
26262;DHT22;13988;52.446;13.280;2023-05-10T10:07:45;20.00;85.30
26262;DHT22;13988;52.446;13.280;2023-05-10T10:10:10;20.10;85.00
26262;DHT22;13988;52.446;13.280;2023-05-10T10:12:39;20.30;85.70
26262;DHT22;13988;52.446;13.280;2023-05-10T10:15:06;20.30;82.10
26262;DHT22;13988;52.446;13.280;2023-05-10T10:17:32;20.20;85.80
26262;DHT22;13988;52.446;13.280;2023-05-10T10:20:02;20.40;87.40
26262;DHT22;13988;52.446;13.280;2023-05-10T10:22:28;20.40;86.50
26262;DHT22;13988;52.446;13.280;2023-05-10T10:24:54;20.40;83.40
26262;DHT22;13988;52.446;13.280;2023-05-10T10:27:26;20.60;86.10
26262;DHT22;13988;52.446;13.280;2023-05-10T10:30:21;20.70;84.80
26262;DHT22;13988;52.446;13.280;2023-05-10T10:33:06;20.60;84.10
26262;DHT22;13988;52.446;13.280;2023-05-10T10:35:36;20.70;85.80
26262;DHT22;13988;52.446;13.280;2023-05-10T10:38:02;20.60;85.50
26262;DHT22;13988;52.446;13.280;2023-05-10T10:40:32;20.90;85.20
26262;DHT22;13988;52.446;13.280;2023-05-10T10:43:22;21.10;84.90
26262;DHT22;13988;52.446;13.280;2023-05-10T10:46:15;20.80;80.90
26262;DHT22;13988;52.446;13.280;2023-05-10T10:48:48;20.90;84.60
26262;DHT22;13988;52.446;13.280;2023-05-10T10:51:14;21.10;83.40
26262;DHT22;13988;52.446;13.280;2023-05-10T10:53:40;21.30;82.80
26262;DHT22;13988;52.446;13.280;2023-05-10T10:56:13;21.40;81.10
26262;DHT22;13988;52.446;13.280;2023-05-10T10:58:41;21.20;80.40
26262;DHT22;13988;52.446;13.280;2023-05-10T11:01:17;21.10;81.30
26262;DHT22;13988;52.446;13.280;2023-05-10T11:04:18;21.20;80.50
26262;DHT22;13988;52.446;13.280;2023-05-10T11:06:44;21.60;82.40
26262;DHT22;13988;52.446;13.280;2023-05-10T11:09:11;21.70;79.40
26262;DHT22;13988;52.446;13.280;2023-05-10T11:11:54;21.80;81.70
26262;DHT22;13988;52.446;13.280;2023-05-10T11:14:23;21.80;80.30
26262;DHT22;13988;52.446;13.280;2023-05-10T11:16:49;21.80;77.70
26262;DHT22;13988;52.446;13.280;2023-05-10T11:19:16;21.70;75.30
26262;DHT22;13988;52.446;13.280;2023-05-10T11:21:47;22.10;76.20
26262;DHT22;13988;52.446;13.280;2023-05-10T11:24:20;22.40;81.20
26262;DHT22;13988;52.446;13.280;2023-05-10T11:26:46;22.40;76.00
26262;DHT22;13988;52.446;13.280;2023-05-10T11:29:15;22.70;73.10
26262;DHT22;13988;52.446;13.280;2023-05-10T11:31:44;22.80;73.10
26262;DHT22;13988;52.446;13.280;2023-05-10T11:34:11;23.10;72.30
26262;DHT22;13988;52.446;13.280;2023-05-10T11:36:36;23.10;75.00
26262;DHT22;13988;52.446;13.280;2023-05-10T11:39:03;24.20;70.40
26262;DHT22;13988;52.446;13.280;2023-05-10T11:41:30;23.70;74.10
26262;DHT22;13988;52.446;13.280;2023-05-10T11:43:57;23.60;70.80
26262;DHT22;13988;52.446;13.280;2023-05-10T11:46:24;23.70;70.00
26262;DHT22;13988;52.446;13.280;2023-05-10T11:48:52;23.30;67.20
26262;DHT22;13988;52.446;13.280;2023-05-10T11:51:25;23.90;68.00
26262;DHT22;13988;52.446;13.280;2023-05-10T11:53:53;24.00;71.30
26262;DHT22;13988;52.446;13.280;2023-05-10T11:56:19;24.40;71.20
26262;DHT22;13988;52.446;13.280;2023-05-10T11:58:55;25.00;65.90
26262;DHT22;13988;52.446;13.280;2023-05-10T12:01:21;25.00;67.10
26262;DHT22;13988;52.446;13.280;2023-05-10T12:03:48;24.70;64.50
26262;DHT22;13988;52.446;13.280;2023-05-10T12:06:14;24.20;64.50
26262;DHT22;13988;52.446;13.280;2023-05-10T12:08:44;24.00;63.40
26262;DHT22;13988;52.446;13.280;2023-05-10T12:11:12;24.00;65.60
26262;DHT22;13988;52.446;13.280;2023-05-10T12:13:40;25.00;64.90
26262;DHT22;13988;52.446;13.280;2023-05-10T12:16:32;25.30;64.90
26262;DHT22;13988;52.446;13.280;2023-05-10T12:19:00;25.00;62.60
26262;DHT22;13988;52.446;13.280;2023-05-10T12:21:28;25.60;60.30
26262;DHT22;13988;52.446;13.280;2023-05-10T12:23:59;25.70;59.70
26262;DHT22;13988;52.446;13.280;2023-05-10T12:26:27;24.70;56.90
26262;DHT22;13988;52.446;13.280;2023-05-10T12:28:54;25.30;60.00
26262;DHT22;13988;52.446;13.280;2023-05-10T12:31:20;25.60;59.20
26262;DHT22;13988;52.446;13.280;2023-05-10T12:33:46;25.50;62.00
26262;DHT22;13988;52.446;13.280;2023-05-10T12:36:14;25.90;59.70
26262;DHT22;13988;52.446;13.280;2023-05-10T12:38:42;25.50;58.60
26262;DHT22;13988;52.446;13.280;2023-05-10T12:41:15;25.10;59.50
26262;DHT22;13988;52.446;13.280;2023-05-10T12:43:41;24.80;59.00
26262;DHT22;13988;52.446;13.280;2023-05-10T12:46:11;25.00;57.70
26262;DHT22;13988;52.446;13.280;2023-05-10T12:48:38;25.70;57.10
26262;DHT22;13988;52.446;13.280;2023-05-10T12:51:05;25.50;60.60
26262;DHT22;13988;52.446;13.280;2023-05-10T12:53:34;26.00;56.30
26262;DHT22;13988;52.446;13.280;2023-05-10T12:55:59;26.20;58.60
26262;DHT22;13988;52.446;13.280;2023-05-10T12:58:25;27.00;58.30
26262;DHT22;13988;52.446;13.280;2023-05-10T13:00:51;26.50;57.60
26262;DHT22;13988;52.446;13.280;2023-05-10T13:03:17;25.70;56.30
26262;DHT22;13988;52.446;13.280;2023-05-10T13:05:43;25.20;55.80
26262;DHT22;13988;52.446;13.280;2023-05-10T13:08:08;24.60;58.80
26262;DHT22;13988;52.446;13.280;2023-05-10T13:10:34;24.70;57.20
26262;DHT22;13988;52.446;13.280;2023-05-10T13:13:00;24.30;58.60
26262;DHT22;13988;52.446;13.280;2023-05-10T13:15:26;24.50;60.50
26262;DHT22;13988;52.446;13.280;2023-05-10T13:17:52;25.00;59.10
26262;DHT22;13988;52.446;13.280;2023-05-10T13:20:18;25.40;60.00
26262;DHT22;13988;52.446;13.280;2023-05-10T13:22:44;26.00;56.80
26262;DHT22;13988;52.446;13.280;2023-05-10T13:25:10;26.20;59.40
26262;DHT22;13988;52.446;13.280;2023-05-10T13:27:37;25.90;57.10
26262;DHT22;13988;52.446;13.280;2023-05-10T13:30:03;25.60;56.10
26262;DHT22;13988;52.446;13.280;2023-05-10T13:32:29;25.50;55.80
26262;DHT22;13988;52.446;13.280;2023-05-10T13:34:55;25.80;55.00
26262;DHT22;13988;52.446;13.280;2023-05-10T13:37:21;26.00;55.80
26262;DHT22;13988;52.446;13.280;2023-05-10T13:39:47;26.30;54.80
26262;DHT22;13988;52.446;13.280;2023-05-10T13:42:13;26.30;57.20
26262;DHT22;13988;52.446;13.280;2023-05-10T13:44:39;26.60;58.10
26262;DHT22;13988;52.446;13.280;2023-05-10T13:47:05;26.50;55.30
26262;DHT22;13988;52.446;13.280;2023-05-10T13:49:30;26.40;54.60
26262;DHT22;13988;52.446;13.280;2023-05-10T13:51:56;26.20;56.10
26262;DHT22;13988;52.446;13.280;2023-05-10T13:54:22;25.80;54.50
26262;DHT22;13988;52.446;13.280;2023-05-10T13:56:48;25.40;56.30
26262;DHT22;13988;52.446;13.280;2023-05-10T13:59:14;25.50;55.80
26262;DHT22;13988;52.446;13.280;2023-05-10T14:01:43;25.10;55.80
26262;DHT22;13988;52.446;13.280;2023-05-10T14:04:09;25.00;56.40
26262;DHT22;13988;52.446;13.280;2023-05-10T14:06:38;25.50;57.20
26262;DHT22;13988;52.446;13.280;2023-05-10T14:09:04;25.80;56.80
26262;DHT22;13988;52.446;13.280;2023-05-10T14:11:29;26.00;56.00
26262;DHT22;13988;52.446;13.280;2023-05-10T14:13:55;26.20;55.20
26262;DHT22;13988;52.446;13.280;2023-05-10T14:16:21;25.70;53.30
26262;DHT22;13988;52.446;13.280;2023-05-10T14:18:47;25.40;54.80
26262;DHT22;13988;52.446;13.280;2023-05-10T14:21:12;24.80;54.70
26262;DHT22;13988;52.446;13.280;2023-05-10T14:23:38;24.90;56.00
26262;DHT22;13988;52.446;13.280;2023-05-10T14:26:04;24.60;56.80
26262;DHT22;13988;52.446;13.280;2023-05-10T14:28:29;24.40;56.80
26262;DHT22;13988;52.446;13.280;2023-05-10T14:30:55;24.40;56.10
26262;DHT22;13988;52.446;13.280;2023-05-10T14:33:21;24.50;56.90
26262;DHT22;13988;52.446;13.280;2023-05-10T14:35:46;24.20;55.60
26262;DHT22;13988;52.446;13.280;2023-05-10T14:38:13;23.80;55.00
26262;DHT22;13988;52.446;13.280;2023-05-10T14:40:38;23.30;56.50
26262;DHT22;13988;52.446;13.280;2023-05-10T14:43:04;23.30;57.20
26262;DHT22;13988;52.446;13.280;2023-05-10T14:45:30;23.60;57.90
26262;DHT22;13988;52.446;13.280;2023-05-10T14:47:56;23.50;57.20
26262;DHT22;13988;52.446;13.280;2023-05-10T14:50:22;23.50;57.80
26262;DHT22;13988;52.446;13.280;2023-05-10T14:52:48;23.60;58.40
26262;DHT22;13988;52.446;13.280;2023-05-10T14:55:14;23.60;57.60
26262;DHT22;13988;52.446;13.280;2023-05-10T14:57:40;23.50;56.90
26262;DHT22;13988;52.446;13.280;2023-05-10T15:00:06;23.60;58.00
26262;DHT22;13988;52.446;13.280;2023-05-10T15:02:32;23.60;57.90
26262;DHT22;13988;52.446;13.280;2023-05-10T15:04:58;23.90;57.30
26262;DHT22;13988;52.446;13.280;2023-05-10T15:07:24;24.00;57.00
26262;DHT22;13988;52.446;13.280;2023-05-10T15:09:52;24.00;58.30
26262;DHT22;13988;52.446;13.280;2023-05-10T15:12:19;24.30;56.80
26262;DHT22;13988;52.446;13.280;2023-05-10T15:14:45;24.30;57.40
26262;DHT22;13988;52.446;13.280;2023-05-10T15:17:11;24.30;58.80
26262;DHT22;13988;52.446;13.280;2023-05-10T15:19:37;24.50;58.60
26262;DHT22;13988;52.446;13.280;2023-05-10T15:22:04;24.50;59.30
26262;DHT22;13988;52.446;13.280;2023-05-10T15:24:30;24.60;58.60
26262;DHT22;13988;52.446;13.280;2023-05-10T15:26:56;24.30;56.70
26262;DHT22;13988;52.446;13.280;2023-05-10T15:29:21;24.20;56.90
26262;DHT22;13988;52.446;13.280;2023-05-10T15:31:48;24.40;58.40
26262;DHT22;13988;52.446;13.280;2023-05-10T15:34:14;24.20;58.40
26262;DHT22;13988;52.446;13.280;2023-05-10T15:36:39;24.30;58.00